Time;durP1;ratioP1;P1;durP2;ratioP2;P2;SDS_P1;SDS_P2;PMS_P1;PMS_P2;Temp;Humidity;BMP_temperature;BMP_pressure;BME280_temperature;BME280_humidity;BME280_pressure;Samples;Min_cycle;Max_cycle;Signal;HPM_P1;HPM_P2
2022/08/27 00:00:49;;;;;;;15.50;13.47;;;25.10;78.20;;;-142.21;100.00;112049.66;5052412;28;20205;-74
2022/08/27 00:03:18;;;;;;;15.57;13.97;;;25.10;77.80;;;-142.21;100.00;112049.66;5051914;28;20226;-74
2022/08/27 00:05:46;;;;;;;13.93;12.53;;;25.10;78.30;;;-142.21;100.00;112049.66;5052267;28;20233;-74
2022/08/27 00:08:14;;;;;;;11.57;10.33;;;25.00;77.90;;;-142.21;100.00;112049.66;5051676;28;20248;-74
2022/08/27 00:10:42;;;;;;;10.33;9.23;;;25.00;77.30;;;-142.21;100.00;112049.66;5051869;28;20241;-74
2022/08/27 00:13:10;;;;;;;9.47;8.57;;;25.00;77.10;;;-142.21;100.00;112049.66;5051230;28;20241;-74
2022/08/27 00:15:37;;;;;;;8.43;7.63;;;25.00;76.80;;;-142.21;100.00;112049.66;5052273;28;20296;-73
2022/08/27 00:18:06;;;;;;;9.93;8.50;;;24.90;76.60;;;-142.21;100.00;112049.66;5051155;28;20201;-74
2022/08/27 00:20:35;;;;;;;9.40;8.50;;;24.90;76.70;;;-142.21;100.00;112049.66;5051790;28;20205;-73
2022/08/27 00:23:02;;;;;;;10.37;9.30;;;24.80;76.90;;;-142.21;100.00;112049.66;5051376;28;20584;-73
2022/08/27 00:25:30;;;;;;;12.33;10.63;;;24.80;78.00;;;-142.21;100.00;112049.66;5051995;28;20304;-74
2022/08/27 00:27:57;;;;;;;11.23;10.13;;;24.80;77.60;;;-142.21;100.00;112049.66;5051493;28;20206;-74
2022/08/27 00:30:24;;;;;;;11.90;10.33;;;24.80;77.50;;;-142.21;100.00;112049.66;5051295;28;20624;-74
2022/08/27 00:32:52;;;;;;;12.43;10.67;;;24.80;77.50;;;-142.21;100.00;112049.66;5051595;28;20206;-74
2022/08/27 00:35:19;;;;;;;12.10;9.97;;;24.80;77.50;;;-142.21;100.00;112049.66;5051545;28;20316;-74
2022/08/27 00:37:49;;;;;;;12.20;11.00;;;24.80;77.60;;;-142.21;100.00;112049.66;5051728;28;20251;-75
2022/08/27 00:40:21;;;;;;;12.70;11.40;;;24.80;78.00;;;-142.21;100.00;112049.66;5050987;28;20237;-74
2022/08/27 00:42:49;;;;;;;14.53;11.93;;;24.80;78.00;;;-142.21;100.00;112049.66;5051645;28;20247;-74
2022/08/27 00:45:21;;;;;;;13.63;11.60;;;24.80;77.90;;;-142.21;100.00;112049.66;5051288;28;20296;-74
2022/08/27 00:47:54;;;;;;;13.57;12.27;;;24.70;78.20;;;-142.21;100.00;112049.66;5051813;28;20240;-74
2022/08/27 00:50:33;;;;;;;12.37;11.13;;;24.70;78.20;;;-142.21;100.00;112049.66;5051664;28;20547;-74
2022/08/27 00:53:07;;;;;;;12.77;11.30;;;24.70;78.50;;;-142.21;100.00;112049.66;5051288;28;20278;-74
2022/08/27 00:55:42;;;;;;;13.47;11.50;;;24.60;78.80;;;-142.21;100.00;112049.66;5051768;28;20193;-74
2022/08/27 00:58:17;;;;;;;13.57;12.03;;;24.60;79.20;;;-142.21;100.00;112049.66;5050996;28;20244;-74
2022/08/27 01:00:46;;;;;;;14.10;12.60;;;24.60;79.00;;;-142.21;100.00;112049.66;5051364;28;20711;-74
2022/08/27 01:03:15;;;;;;;14.03;12.53;;;24.40;78.90;;;-142.21;100.00;112049.66;5050821;28;20696;-73
2022/08/27 01:05:45;;;;;;;13.37;11.83;;;24.30;79.30;;;-142.21;100.00;112049.66;5051483;28;20209;-74
2022/08/27 01:08:19;;;;;;;13.67;12.27;;;24.30;79.60;;;-142.21;100.00;112049.66;5051032;28;20251;-74
2022/08/27 01:10:47;;;;;;;13.77;12.20;;;24.40;80.90;;;-142.21;100.00;112049.66;5051717;28;20263;-74
2022/08/27 01:13:23;;;;;;;15.20;11.80;;;24.30;80.00;;;-142.21;100.00;112049.66;5050691;28;20205;-74
2022/08/27 01:15:52;;;;;;;14.13;11.73;;;24.20;80.30;;;-142.21;100.00;112049.66;5017795;28;20212;-74
2022/08/27 01:18:20;;;;;;;13.43;12.03;;;24.10;80.10;;;-142.21;100.00;112049.66;5050673;28;20736;-74
2022/08/27 01:20:58;;;;;;;13.57;11.73;;;24.10;80.00;;;-142.21;100.00;112049.66;5051050;28;20210;-73
2022/08/27 01:23:37;;;;;;;13.00;11.40;;;24.20;80.30;;;-142.21;100.00;112049.66;5051580;28;20247;-74
2022/08/27 01:26:10;;;;;;;12.93;11.57;;;24.10;80.30;;;-142.21;100.00;112049.66;5050693;28;20224;-74
2022/08/27 01:28:38;;;;;;;13.40;11.13;;;24.00;80.30;;;-142.21;100.00;112049.66;5051605;28;20555;-75
2022/08/27 01:31:09;;;;;;;13.83;12.13;;;23.90;80.70;;;-142.21;100.00;112049.66;5050389;28;20693;-74
2022/08/27 01:33:40;;;;;;;12.67;10.40;;;23.80;81.40;;;-142.21;100.00;112049.66;5051460;28;20302;-74
2022/08/27 01:36:08;;;;;;;13.57;12.20;;;23.80;81.50;;;-142.21;100.00;112049.66;5050583;28;20244;-74
2022/08/27 01:38:35;;;;;;;12.10;10.90;;;23.80;81.40;;;-142.21;100.00;112049.66;5051499;28;20297;-74
2022/08/27 01:41:03;;;;;;;12.53;10.63;;;23.90;80.70;;;-142.21;100.00;112049.66;5050790;28;20284;-74
2022/08/27 01:43:32;;;;;;;13.20;11.80;;;24.00;80.70;;;-142.21;100.00;112049.66;5054618;28;20233;-74
2022/08/27 01:46:00;;;;;;;13.03;11.67;;;24.00;80.90;;;-142.21;100.00;112049.66;5054125;28;20209;-74
2022/08/27 01:48:27;;;;;;;14.20;11.80;;;24.10;81.20;;;-142.21;100.00;112049.66;5054796;28;20214;-74
2022/08/27 01:50:54;;;;;;;13.23;11.93;;;24.10;80.80;;;-142.21;100.00;112049.66;5054802;28;20207;-74
2022/08/27 01:53:25;;;;;;;13.00;11.53;;;24.20;80.90;;;-142.21;100.00;112049.66;5054253;28;20315;-74
2022/08/27 01:55:54;;;;;;;13.00;11.60;;;24.20;80.80;;;-142.21;100.00;112049.66;5054384;28;20243;-74
2022/08/27 01:58:28;;;;;;;13.13;11.80;;;24.20;80.60;;;-142.21;100.00;112049.66;5053598;28;20245;-75
2022/08/27 02:01:01;;;;;;;13.67;11.73;;;24.20;80.70;;;-142.21;100.00;112049.66;5054465;28;20229;-74
2022/08/27 02:03:29;;;;;;;12.70;11.37;;;24.30;80.50;;;-142.21;100.00;112049.66;5054163;28;20637;-74
2022/08/27 02:05:57;;;;;;;16.87;12.87;;;24.30;80.40;;;-142.21;100.00;112049.66;5054146;28;20206;-74
2022/08/27 02:08:24;;;;;;;14.97;13.47;;;24.30;80.40;;;-142.21;100.00;112049.66;5054260;28;20249;-74
2022/08/27 02:10:51;;;;;;;16.87;13.87;;;24.30;80.40;;;-142.21;100.00;112049.66;5054357;28;20296;-74
2022/08/27 02:13:19;;;;;;;15.83;14.30;;;24.20;80.40;;;-142.21;100.00;112049.66;5053282;28;20319;-74
2022/08/27 02:15:47;;;;;;;16.27;14.53;;;24.30;80.80;;;-142.21;100.00;112049.66;5053963;28;20205;-74
2022/08/27 02:18:17;;;;;;;17.33;14.83;;;24.20;80.90;;;-142.21;100.00;112049.66;5053320;28;20676;-75
2022/08/27 02:20:47;;;;;;;16.00;14.37;;;24.20;81.20;;;-142.21;100.00;112049.66;5054277;28;20635;-75
2022/08/27 02:23:16;;;;;;;16.77;13.60;;;24.10;81.00;;;-142.21;100.00;112049.66;5053631;28;20205;-75
2022/08/27 02:25:46;;;;;;;15.90;14.23;;;24.10;81.30;;;-142.21;100.00;112049.66;5053779;28;20255;-74
2022/08/27 02:28:13;;;;;;;17.53;14.27;;;24.00;81.40;;;-142.21;100.00;112049.66;5053395;28;20206;-74
2022/08/27 02:30:41;;;;;;;16.30;14.03;;;24.00;81.70;;;-142.21;100.00;112049.66;5054003;28;20205;-74
2022/08/27 02:33:08;;;;;;;16.33;14.63;;;24.00;81.60;;;-142.21;100.00;112049.66;5053071;28;20262;-74
2022/08/27 02:35:41;;;;;;;16.87;14.63;;;24.00;81.70;;;-142.21;100.00;112049.66;5053892;28;20205;-74
2022/08/27 02:38:08;;;;;;;16.17;14.43;;;23.90;82.10;;;-142.21;100.00;112049.66;5053509;28;20208;-74
2022/08/27 02:40:36;;;;;;;18.77;14.60;;;23.90;82.20;;;-142.21;100.00;112049.66;5053774;28;20237;-74
2022/08/27 02:43:06;;;;;;;15.57;13.83;;;24.00;82.20;;;-142.21;100.00;112049.66;5053383;28;20205;-74
2022/08/27 02:45:33;;;;;;;16.73;14.70;;;24.00;83.00;;;-142.21;100.00;112049.66;5053986;28;20291;-75
2022/08/27 02:48:01;;;;;;;19.03;16.37;;;24.10;82.90;;;-142.21;100.00;112049.66;5053057;28;20206;-74
2022/08/27 02:50:29;;;;;;;23.13;18.53;;;24.10;82.30;;;-142.21;100.00;112049.66;5053888;28;20292;-74
2022/08/27 02:52:57;;;;;;;19.60;16.93;;;24.10;82.00;;;-142.21;100.00;112049.66;5053039;28;20212;-74
2022/08/27 02:55:25;;;;;;;24.70;18.87;;;24.10;82.30;;;-142.21;100.00;112049.66;5052676;28;20307;-74
2022/08/27 02:57:52;;;;;;;24.03;20.53;;;24.10;82.40;;;-142.21;100.00;112049.66;5052968;28;20289;-75
2022/08/27 03:00:23;;;;;;;26.23;22.50;;;24.10;82.30;;;-142.21;100.00;112049.66;5052631;28;20293;-74
2022/08/27 03:02:51;;;;;;;26.17;21.93;;;24.20;82.50;;;-142.21;100.00;112049.66;5053292;28;20192;-74
2022/08/27 03:05:20;;;;;;;25.57;21.60;;;24.10;82.10;;;-142.21;100.00;112049.66;5052492;28;20225;-74
2022/08/27 03:07:48;;;;;;;26.20;22.47;;;24.10;82.40;;;-142.21;100.00;112049.66;5053317;28;20243;-74
2022/08/27 03:10:20;;;;;;;27.37;22.37;;;24.10;82.30;;;-142.21;100.00;112049.66;5052715;28;20208;-74
2022/08/27 03:12:48;;;;;;;27.67;22.77;;;24.10;83.00;;;-142.21;100.00;112049.66;5053077;28;20198;-74
2022/08/27 03:15:19;;;;;;;26.93;22.73;;;24.10;83.00;;;-142.21;100.00;112049.66;5052492;28;20255;-74
2022/08/27 03:20:32;;;;;;;26.63;21.87;;;24.10;83.10;;;-142.21;100.00;112049.66;5052927;28;20232;-74
2022/08/27 03:22:59;;;;;;;27.47;23.13;;;24.00;82.70;;;-142.21;100.00;112049.66;5052991;28;20560;-74
2022/08/27 03:25:28;;;;;;;26.07;22.10;;;24.00;83.30;;;-142.21;100.00;112049.66;5052412;28;20634;-74
2022/08/27 03:27:55;;;;;;;26.27;21.40;;;24.00;83.50;;;-142.21;100.00;112049.66;5052474;28;20611;-74
2022/08/27 03:30:24;;;;;;;24.90;21.30;;;24.00;83.70;;;-142.21;100.00;112049.66;5052227;28;20571;-74
2022/08/27 03:32:54;;;;;;;24.63;20.53;;;24.00;84.60;;;-142.21;100.00;112049.66;5052810;28;20206;-74
2022/08/27 03:35:22;;;;;;;27.17;20.43;;;23.90;83.80;;;-142.21;100.00;112049.66;5052050;28;20280;-74
2022/08/27 03:37:50;;;;;;;24.20;20.40;;;24.00;83.90;;;-142.21;100.00;112049.66;5052618;28;20312;-75
2022/08/27 03:40:19;;;;;;;23.67;19.87;;;24.10;83.70;;;-142.21;100.00;112049.66;5051712;28;20207;-74
2022/08/27 03:42:48;;;;;;;23.00;19.77;;;24.10;83.50;;;-142.21;100.00;112049.66;5052291;28;20231;-74
2022/08/27 03:45:15;;;;;;;23.87;19.73;;;24.20;83.20;;;-142.21;100.00;112049.66;5051590;28;20229;-75
2022/08/27 03:47:45;;;;;;;23.63;20.93;;;24.20;83.00;;;-142.21;100.00;112049.66;5052562;28;20216;-74
2022/08/27 03:50:12;;;;;;;24.67;20.73;;;24.10;83.10;;;-142.21;100.00;112049.66;5051746;28;20697;-75
2022/08/27 03:52:39;;;;;;;25.13;20.93;;;24.00;83.40;;;-142.21;100.00;112049.66;5052182;28;20244;-73
2022/08/27 03:55:09;;;;;;;27.53;22.30;;;23.90;83.50;;;-142.21;100.00;112049.66;5051426;28;20209;-74
2022/08/27 03:57:37;;;;;;;25.03;21.77;;;23.90;83.90;;;-142.21;100.00;112049.66;5051929;28;20709;-74
2022/08/27 04:00:10;;;;;;;25.20;20.80;;;24.00;83.60;;;-142.21;100.00;112049.66;5051730;28;20206;-74
2022/08/27 04:02:38;;;;;;;25.13;21.27;;;23.90;83.60;;;-142.21;100.00;112049.66;5052060;28;20196;-74
2022/08/27 04:05:06;;;;;;;25.37;20.13;;;23.80;83.80;;;-142.21;100.00;112049.66;5051169;28;20261;-74
2022/08/27 04:07:33;;;;;;;26.93;21.60;;;23.80;83.90;;;-142.21;100.00;112049.66;5052066;28;20246;-74
2022/08/27 04:10:01;;;;;;;23.97;20.00;;;23.80;83.90;;;-142.21;100.00;112049.66;5052170;28;20235;-74
2022/08/27 04:12:28;;;;;;;23.70;19.30;;;23.80;83.70;;;-142.21;100.00;112049.66;5051387;28;20233;-74
2022/08/27 04:14:58;;;;;;;25.30;21.23;;;24.00;83.50;;;-142.21;100.00;112049.66;5051918;28;20237;-74
2022/08/27 04:17:26;;;;;;;25.80;21.80;;;24.00;84.50;;;-142.21;100.00;112049.66;5051683;28;20289;-74
2022/08/27 04:19:58;;;;;;;23.83;20.83;;;24.00;83.80;;;-142.21;100.00;112049.66;5052191;28;20207;-74
2022/08/27 04:22:27;;;;;;;26.13;21.80;;;24.00;83.90;;;-142.21;100.00;112049.66;5051462;28;20190;-74
2022/08/27 04:24:55;;;;;;;22.73;20.30;;;24.10;83.80;;;-142.21;100.00;112049.66;5052057;28;20336;-74
2022/08/27 04:27:24;;;;;;;24.00;20.23;;;24.10;83.50;;;-142.21;100.00;112049.66;5051518;28;20301;-74
2022/08/27 04:29:55;;;;;;;22.60;18.63;;;24.10;83.50;;;-142.21;100.00;112049.66;5051949;28;20206;-74
2022/08/27 04:32:23;;;;;;;24.23;21.03;;;24.20;83.60;;;-142.21;100.00;112049.66;5051438;28;20203;-74
2022/08/27 04:34:55;;;;;;;21.53;19.23;;;24.20;83.40;;;-142.21;100.00;112049.66;5051663;28;20255;-74
2022/08/27 04:37:24;;;;;;;23.73;19.87;;;24.20;83.70;;;-142.21;100.00;112049.66;5050869;28;20803;-74
2022/08/27 04:39:52;;;;;;;23.27;19.57;;;24.30;83.40;;;-142.21;100.00;112049.66;5051983;28;20296;-74
2022/08/27 04:42:20;;;;;;;23.37;19.87;;;24.30;83.10;;;-142.21;100.00;112049.66;5050850;28;20208;-75
2022/08/27 04:44:48;;;;;;;22.33;19.77;;;24.30;83.10;;;-142.21;100.00;112049.66;5051616;28;20265;-75
2022/08/27 04:47:16;;;;;;;22.77;19.00;;;24.30;82.90;;;-142.21;100.00;112049.66;5050875;28;20289;-74
2022/08/27 04:49:45;;;;;;;23.03;19.50;;;24.30;82.90;;;-142.21;100.00;112049.66;5051953;28;20237;-74
2022/08/27 04:52:14;;;;;;;22.57;18.80;;;24.30;82.60;;;-142.21;100.00;112049.66;5051168;28;20570;-74
2022/08/27 04:54:42;;;;;;;23.30;20.60;;;24.30;82.70;;;-142.21;100.00;112049.66;5051900;28;20295;-74
2022/08/27 04:57:09;;;;;;;24.50;20.87;;;24.20;83.00;;;-142.21;100.00;112049.66;5050485;28;20259;-74
2022/08/27 04:59:38;;;;;;;22.23;19.83;;;24.20;83.20;;;-142.21;100.00;112049.66;5051485;28;20190;-74
2022/08/27 05:02:09;;;;;;;21.57;19.27;;;24.20;83.50;;;-142.21;100.00;112049.66;5051734;28;20216;-75
2022/08/27 05:04:39;;;;;;;25.80;20.77;;;24.30;83.80;;;-142.21;100.00;112049.66;5051607;28;20286;-74
2022/08/27 05:07:09;;;;;;;26.00;20.27;;;24.30;83.50;;;-142.21;100.00;112049.66;5051330;28;20586;-75
2022/08/27 05:09:38;;;;;;;25.80;21.27;;;24.30;83.30;;;-142.21;100.00;112049.66;5051873;28;20697;-75
2022/08/27 05:12:06;;;;;;;26.43;21.27;;;24.20;84.30;;;-142.21;100.00;112049.66;5051153;28;20252;-75
2022/08/27 05:14:34;;;;;;;26.17;20.17;;;24.20;83.60;;;-142.21;100.00;112049.66;5050873;28;20217;-75
2022/08/27 05:17:02;;;;;;;23.77;21.00;;;24.20;83.20;;;-142.21;100.00;112049.66;5052593;28;20205;-74
2022/08/27 05:19:30;;;;;;;24.43;21.67;;;24.30;83.30;;;-142.21;100.00;112049.66;5054752;28;20297;-75
2022/08/27 05:21:57;;;;;;;24.13;19.53;;;24.30;83.10;;;-142.21;100.00;112049.66;5055220;28;20213;-74
2022/08/27 05:24:24;;;;;;;26.23;21.60;;;24.30;83.10;;;-142.21;100.00;112049.66;5054352;28;20321;-75
2022/08/27 05:26:53;;;;;;;25.87;20.77;;;24.20;83.40;;;-142.21;100.00;112049.66;5054826;28;20677;-74
2022/08/27 05:29:21;;;;;;;25.60;20.60;;;24.20;83.70;;;-142.21;100.00;112049.66;5054531;28;20300;-75
2022/08/27 05:31:49;;;;;;;26.37;20.80;;;24.20;83.70;;;-142.21;100.00;112049.66;5054898;28;20663;-75
2022/08/27 05:34:16;;;;;;;28.57;21.27;;;24.20;84.10;;;-142.21;100.00;112049.66;5054217;28;20734;-75
2022/08/27 05:36:45;;;;;;;25.37;20.97;;;24.20;84.00;;;-142.21;100.00;112049.66;5054653;28;20268;-75
2022/08/27 05:39:13;;;;;;;27.80;21.20;;;24.20;84.30;;;-142.21;100.00;112049.66;5054000;28;20208;-75
2022/08/27 05:41:40;;;;;;;27.37;21.03;;;24.20;84.20;;;-142.21;100.00;112049.66;5054918;28;20304;-75
2022/08/27 05:44:10;;;;;;;25.70;20.10;;;24.20;84.40;;;-142.21;100.00;112049.66;5054787;28;20216;-75
2022/08/27 05:46:39;;;;;;;25.90;20.53;;;24.20;84.40;;;-142.21;100.00;112049.66;5055017;28;20573;-75
2022/08/27 05:49:08;;;;;;;26.27;22.57;;;24.20;84.70;;;-142.21;100.00;112049.66;5054779;28;20219;-75
2022/08/27 05:51:36;;;;;;;29.10;22.43;;;24.20;84.70;;;-142.21;100.00;112049.66;5054082;28;20586;-75
2022/08/27 05:54:13;;;;;;;27.03;21.63;;;24.30;85.00;;;-142.21;100.00;112049.66;5054331;28;20683;-74
2022/08/27 05:56:42;;;;;;;24.13;20.20;;;24.30;84.90;;;-142.21;100.00;112049.66;5054647;28;20189;-75
2022/08/27 06:01:57;;;;;;;25.07;20.47;;;24.30;85.10;;;-142.21;100.00;112049.66;5054500;28;20193;-75
2022/08/27 06:04:26;;;;;;;26.57;21.23;;;24.30;84.70;;;-142.21;100.00;112049.66;5053880;28;20209;-75
2022/08/27 06:06:53;;;;;;;24.43;20.87;;;24.20;84.30;;;-142.21;100.00;112049.66;5054836;28;20288;-74
2022/08/27 06:09:24;;;;;;;23.67;20.67;;;24.20;84.40;;;-142.21;100.00;112049.66;5034819;28;20197;-75
2022/08/27 06:11:54;;;;;;;24.63;21.37;;;24.30;84.70;;;-142.21;100.00;112049.66;5054402;28;20193;-74
2022/08/27 06:14:23;;;;;;;26.07;20.80;;;24.30;84.80;;;-142.21;100.00;112049.66;5053751;28;20273;-74
2022/08/27 06:16:50;;;;;;;27.17;20.90;;;24.30;84.90;;;-142.21;100.00;112049.66;5054117;28;20206;-75
2022/08/27 06:19:18;;;;;;;24.07;20.70;;;24.30;84.30;;;-142.21;100.00;112049.66;5053634;28;20211;-75
2022/08/27 06:21:45;;;;;;;23.97;20.23;;;24.30;84.30;;;-142.21;100.00;112049.66;5054137;28;20236;-75
2022/08/27 06:24:13;;;;;;;24.87;20.53;;;24.30;84.30;;;-142.21;100.00;112049.66;5053722;28;20674;-75
2022/08/27 06:26:43;;;;;;;25.37;20.93;;;24.30;84.70;;;-142.21;100.00;112049.66;5053819;28;20228;-75
2022/08/27 06:29:13;;;;;;;28.43;22.47;;;24.40;84.90;;;-142.21;100.00;112049.66;5052678;28;20691;-75
2022/08/27 06:31:42;;;;;;;23.20;19.83;;;24.40;84.90;;;-142.21;100.00;112049.66;5054075;28;20209;-75
2022/08/27 06:34:11;;;;;;;25.27;20.93;;;24.40;84.70;;;-142.21;100.00;112049.66;5053569;28;20217;-75
2022/08/27 06:36:42;;;;;;;26.53;20.47;;;24.50;84.60;;;-142.21;100.00;112049.66;5053546;28;20256;-75
2022/08/27 06:39:12;;;;;;;25.97;21.33;;;24.50;84.40;;;-142.21;100.00;112049.66;5053926;28;20204;-75
2022/08/27 06:41:41;;;;;;;26.83;22.33;;;24.50;84.70;;;-142.21;100.00;112049.66;5053974;28;20212;-75
2022/08/27 06:44:09;;;;;;;24.90;20.73;;;24.40;84.90;;;-142.21;100.00;112049.66;5053764;28;20289;-75
2022/08/27 06:46:38;;;;;;;26.73;20.80;;;24.50;84.80;;;-142.21;100.00;112049.66;5053189;28;20236;-74
2022/08/27 06:49:07;;;;;;;23.03;20.53;;;24.50;84.30;;;-142.21;100.00;112049.66;5053256;28;20668;-74
2022/08/27 06:51:39;;;;;;;23.17;19.43;;;24.60;84.70;;;-142.21;100.00;112049.66;5053188;28;20256;-75
2022/08/27 06:54:10;;;;;;;24.60;20.70;;;24.60;84.80;;;-142.21;100.00;112049.66;5053154;28;20590;-74
2022/08/27 06:56:38;;;;;;;27.10;20.90;;;24.60;84.80;;;-142.21;100.00;112049.66;5053059;28;20182;-75
2022/08/27 06:59:09;;;;;;;23.07;20.20;;;24.70;84.90;;;-142.21;100.00;112049.66;5053097;28;20268;-75
2022/08/27 07:01:40;;;;;;;23.00;20.30;;;24.70;84.80;;;-142.21;100.00;112049.66;5052982;28;20295;-75
2022/08/27 07:04:12;;;;;;;25.50;20.07;;;24.70;84.80;;;-142.21;100.00;112049.66;5052933;28;20209;-75
2022/08/27 07:06:41;;;;;;;24.13;19.77;;;24.80;84.90;;;-142.21;100.00;112049.66;5052849;28;20300;-74
2022/08/27 07:09:09;;;;;;;22.07;19.70;;;24.80;84.50;;;-142.21;100.00;112049.66;5052808;28;20296;-75
2022/08/27 07:11:38;;;;;;;21.07;18.60;;;24.80;83.80;;;-142.21;100.00;112049.66;5052761;28;20241;-74
2022/08/27 07:14:07;;;;;;;22.03;18.53;;;24.80;84.00;;;-142.21;100.00;112049.66;5018316;28;20688;-74
2022/08/27 07:16:35;;;;;;;20.40;17.97;;;24.80;83.90;;;-142.21;100.00;112049.66;5052651;28;20212;-74
2022/08/27 07:19:05;;;;;;;22.53;18.20;;;24.80;83.60;;;-142.21;100.00;112049.66;5052622;28;20296;-75
2022/08/27 07:21:35;;;;;;;21.30;17.83;;;24.80;84.20;;;-142.21;100.00;112049.66;5052516;28;20206;-75
2022/08/27 07:24:05;;;;;;;21.23;17.93;;;24.80;83.20;;;-142.21;100.00;112049.66;5052967;28;20608;-75
2022/08/27 07:26:35;;;;;;;19.47;17.40;;;24.80;83.20;;;-142.21;100.00;112049.66;5052185;28;20717;-75
2022/08/27 07:29:08;;;;;;;21.30;17.47;;;24.90;83.30;;;-142.21;100.00;112049.66;5052701;28;20213;-75
2022/08/27 07:31:37;;;;;;;20.67;16.67;;;24.90;83.60;;;-142.21;100.00;112049.66;5052419;28;20276;-75
2022/08/27 07:34:06;;;;;;;17.80;15.60;;;24.90;83.00;;;-142.21;100.00;112049.66;5052808;28;20211;-75
2022/08/27 07:36:37;;;;;;;21.07;16.43;;;24.90;83.00;;;-142.21;100.00;112049.66;5052209;28;20260;-75
2022/08/27 07:39:04;;;;;;;17.03;15.33;;;24.90;83.10;;;-142.21;100.00;112049.66;5052921;28;20206;-75
2022/08/27 07:44:23;;;;;;;20.33;16.47;;;24.90;83.00;;;-142.21;100.00;112049.66;5052206;28;20229;-75
2022/08/27 07:44:26;;;;;;;17.27;15.47;;;24.90;82.80;;;-142.21;100.00;112049.66;5051925;28;20665;-74
2022/08/27 07:46:57;;;;;;;17.37;15.57;;;25.00;82.80;;;-142.21;100.00;112049.66;5052653;28;20218;-75
2022/08/27 07:49:25;;;;;;;17.43;15.53;;;24.90;82.90;;;-142.21;100.00;112049.66;5051944;28;20582;-75
2022/08/27 07:51:54;;;;;;;17.97;15.13;;;24.90;82.90;;;-142.21;100.00;112049.66;5052273;28;20213;-75
2022/08/27 07:54:22;;;;;;;18.37;14.90;;;25.00;82.30;;;-142.21;100.00;112049.66;5051834;28;20218;-76
2022/08/27 07:56:50;;;;;;;15.97;14.40;;;25.00;82.10;;;-142.21;100.00;112049.66;5052128;28;20209;-76
2022/08/27 07:59:18;;;;;;;16.20;13.50;;;25.00;81.50;;;-142.21;100.00;112049.66;5051872;28;20241;-76
2022/08/27 08:01:47;;;;;;;16.93;14.50;;;25.00;81.50;;;-142.21;100.00;112049.66;5051990;28;20206;-75
2022/08/27 08:04:15;;;;;;;16.13;14.23;;;25.00;81.10;;;-142.21;100.00;112049.66;5052205;28;20205;-75
2022/08/27 08:06:42;;;;;;;16.83;14.57;;;25.00;80.90;;;-142.21;100.00;112049.66;5051703;28;20329;-75
2022/08/27 08:09:11;;;;;;;16.20;14.50;;;25.00;80.80;;;-142.21;100.00;112049.66;5051999;28;20205;-76
2022/08/27 08:11:38;;;;;;;16.63;14.87;;;25.00;80.90;;;-142.21;100.00;112049.66;5051535;28;20263;-76
2022/08/27 08:14:05;;;;;;;16.87;13.77;;;24.90;80.90;;;-142.21;100.00;112049.66;5051953;28;20690;-76
2022/08/27 08:16:33;;;;;;;17.07;13.83;;;25.00;80.50;;;-142.21;100.00;112049.66;5051139;28;20255;-75
2022/08/27 08:19:00;;;;;;;16.47;14.77;;;25.00;80.80;;;-142.21;100.00;112049.66;5052173;28;20251;-76
2022/08/27 08:21:28;;;;;;;19.13;14.97;;;25.00;81.10;;;-142.21;100.00;112049.66;5051176;28;20205;-76
2022/08/27 08:23:55;;;;;;;16.83;14.60;;;24.90;80.90;;;-142.21;100.00;112049.66;5051802;28;20206;-75
2022/08/27 08:26:24;;;;;;;16.33;14.63;;;24.90;80.60;;;-142.21;100.00;112049.66;5050975;28;20264;-75
2022/08/27 08:28:51;;;;;;;16.00;14.27;;;24.80;80.40;;;-142.21;100.00;112049.66;5051775;28;20209;-76
2022/08/27 08:31:18;;;;;;;16.40;14.43;;;24.90;80.50;;;-142.21;100.00;112049.66;5051843;28;20201;-75
2022/08/27 08:33:46;;;;;;;15.87;14.17;;;24.90;80.70;;;-142.21;100.00;112049.66;5051649;28;20735;-76
2022/08/27 08:36:16;;;;;;;17.77;14.73;;;24.80;80.90;;;-142.21;100.00;112049.66;5051868;28;20641;-76
2022/08/27 08:38:46;;;;;;;18.70;13.93;;;24.80;80.60;;;-142.21;100.00;112049.66;5051603;28;20209;-75
2022/08/27 08:41:39;;;;;;;15.67;14.07;;;24.80;80.70;;;-142.21;100.00;112049.66;5051837;28;20217;-75
2022/08/27 08:44:18;;;;;;;16.33;14.37;;;24.80;81.10;;;-142.21;100.00;112049.66;5051658;28;20197;-75
2022/08/27 08:46:54;;;;;;;15.90;13.63;;;24.80;80.60;;;-142.21;100.00;112049.66;5051471;28;20220;-75
2022/08/27 08:49:37;;;;;;;16.60;13.53;;;24.80;80.60;;;-142.21;100.00;112049.66;5051617;28;20193;-75
2022/08/27 08:52:28;;;;;;;14.80;13.10;;;24.80;80.60;;;-142.21;100.00;112049.66;5053321;28;20196;-75
2022/08/27 08:55:03;;;;;;;16.23;14.07;;;24.90;81.10;;;-142.21;100.00;112049.66;5055851;28;20263;-74
2022/08/27 08:57:39;;;;;;;18.63;14.33;;;24.90;81.00;;;-142.21;100.00;112049.66;5055098;28;20240;-75
2022/08/27 09:00:11;;;;;;;16.67;14.57;;;24.90;81.10;;;-142.21;100.00;112049.66;5055230;28;20205;-76
2022/08/27 09:02:40;;;;;;;16.30;14.60;;;24.90;81.10;;;-142.21;100.00;112049.66;5054869;28;20240;-76
2022/08/27 09:05:10;;;;;;;16.13;14.43;;;24.90;80.80;;;-142.21;100.00;112049.66;5054080;28;20205;-75
2022/08/27 09:07:49;;;;;;;18.60;14.53;;;25.00;81.10;;;-142.21;100.00;112049.66;5054656;28;20212;-75
2022/08/27 09:10:29;;;;;;;16.80;15.00;;;25.00;81.40;;;-142.21;100.00;112049.66;5055520;28;20634;-75
2022/08/27 09:13:03;;;;;;;16.63;14.87;;;25.00;81.30;;;-142.21;100.00;112049.66;5055165;28;20243;-76
2022/08/27 09:15:36;;;;;;;16.53;14.77;;;25.00;81.00;;;-142.21;100.00;112049.66;5054788;28;20181;-76
2022/08/27 09:18:11;;;;;;;15.83;14.17;;;25.00;81.20;;;-142.21;100.00;112049.66;5055186;28;20194;-75
2022/08/27 09:20:42;;;;;;;15.60;14.00;;;25.00;81.30;;;-142.21;100.00;112049.66;5054790;28;20272;-75
2022/08/27 09:23:17;;;;;;;19.73;15.20;;;25.00;81.00;;;-142.21;100.00;112049.66;5055144;28;20232;-75
2022/08/27 09:25:44;;;;;;;16.13;14.20;;;25.00;81.30;;;-142.21;100.00;112049.66;5054635;28;20275;-76
2022/08/27 09:31:09;;;;;;;18.10;15.93;;;25.00;81.40;;;-142.21;100.00;112049.66;5055000;28;20546;-76
2022/08/27 09:33:36;;;;;;;18.40;16.40;;;25.00;81.60;;;-142.21;100.00;112049.66;5054333;28;20282;-76
2022/08/27 09:36:10;;;;;;;17.63;15.77;;;25.10;81.70;;;-142.21;100.00;112049.66;5054919;28;20225;-76
2022/08/27 09:38:41;;;;;;;16.73;15.03;;;25.10;81.40;;;-142.21;100.00;112049.66;5054605;28;20545;-76
2022/08/27 09:41:20;;;;;;;20.07;15.53;;;25.10;81.40;;;-142.21;100.00;112049.66;5054674;28;20219;-75
2022/08/27 09:43:58;;;;;;;17.53;14.47;;;25.20;81.20;;;-142.21;100.00;112049.66;5054257;28;20193;-76
2022/08/27 09:46:27;;;;;;;16.30;14.60;;;25.20;80.40;;;-142.21;100.00;112049.66;5054214;28;20299;-74
2022/08/27 09:48:55;;;;;;;17.57;15.73;;;25.20;80.00;;;-142.21;100.00;112049.66;5054792;28;20205;-75
2022/08/27 09:51:27;;;;;;;17.13;15.40;;;25.20;79.60;;;-142.21;100.00;112049.66;5054430;28;20210;-75
2022/08/27 09:53:58;;;;;;;16.60;14.70;;;25.20;80.00;;;-142.21;100.00;112049.66;5054539;28;20255;-76
2022/08/27 09:56:31;;;;;;;16.70;15.00;;;25.20;79.90;;;-142.21;100.00;112049.66;5054209;28;20235;-77
2022/08/27 09:59:06;;;;;;;19.17;14.80;;;25.20;79.90;;;-142.21;100.00;112049.66;5054135;28;20245;-76
2022/08/27 10:01:37;;;;;;;15.07;13.50;;;25.20;79.70;;;-142.21;100.00;112049.66;5053705;28;20247;-75